sensor_id;sensor_type;location;lat;lon;timestamp;pressure;altitude;pressure_sealevel;temperature;humidity
16331;BME280;8275;48.206;16.340;2023-05-29T00:00:06;99265.66;;;21.23;32.41
16331;BME280;8275;48.206;16.340;2023-05-29T00:02:35;99272.41;;;21.22;32.55
16331;BME280;8275;48.206;16.340;2023-05-29T00:05:05;99273.88;;;21.19;32.95
16331;BME280;8275;48.206;16.340;2023-05-29T00:07:33;99268.63;;;21.18;32.91
16331;BME280;8275;48.206;16.340;2023-05-29T00:10:02;99279.28;;;21.16;32.90
16331;BME280;8275;48.206;16.340;2023-05-29T00:12:31;99277.97;;;21.13;32.88
16331;BME280;8275;48.206;16.340;2023-05-29T00:14:59;99276.66;;;21.11;32.84
16331;BME280;8275;48.206;16.340;2023-05-29T00:17:29;99281.72;;;21.09;32.49
16331;BME280;8275;48.206;16.340;2023-05-29T00:19:59;99274.34;;;21.04;32.63
16331;BME280;8275;48.206;16.340;2023-05-29T00:22:28;99271.34;;;21.00;32.79
16331;BME280;8275;48.206;16.340;2023-05-29T00:24:57;99275.59;;;20.98;32.39
16331;BME280;8275;48.206;16.340;2023-05-29T00:27:25;99269.03;;;20.94;32.52
16331;BME280;8275;48.206;16.340;2023-05-29T00:29:54;99270.50;;;20.91;32.57
16331;BME280;8275;48.206;16.340;2023-05-29T00:32:22;99269.19;;;20.89;32.80
16331;BME280;8275;48.206;16.340;2023-05-29T00:34:52;99269.84;;;20.86;33.05
16331;BME280;8275;48.206;16.340;2023-05-29T00:37:21;99273.28;;;20.83;32.83
16331;BME280;8275;48.206;16.340;2023-05-29T00:39:50;99267.22;;;20.81;33.00
16331;BME280;8275;48.206;16.340;2023-05-29T00:42:18;99267.84;;;20.78;33.27
16331;BME280;8275;48.206;16.340;2023-05-29T00:44:47;99262.94;;;20.75;33.33
16331;BME280;8275;48.206;16.340;2023-05-29T00:47:15;99266.03;;;20.73;33.10
16331;BME280;8275;48.206;16.340;2023-05-29T00:49:44;99263.91;;;20.70;33.10
16331;BME280;8275;48.206;16.340;2023-05-29T00:52:14;99260.63;;;20.68;33.09
16331;BME280;8275;48.206;16.340;2023-05-29T00:54:44;99265.69;;;20.66;33.54
16331;BME280;8275;48.206;16.340;2023-05-29T00:57:14;99256.84;;;20.64;33.48
16331;BME280;8275;48.206;16.340;2023-05-29T00:59:46;99255.84;;;20.60;33.19
16331;BME280;8275;48.206;16.340;2023-05-29T01:02:15;99256.16;;;20.59;33.17
16331;BME280;8275;48.206;16.340;2023-05-29T01:04:45;99258.44;;;20.57;33.36
16331;BME280;8275;48.206;16.340;2023-05-29T01:07:15;99250.44;;;20.55;33.19
16331;BME280;8275;48.206;16.340;2023-05-29T01:09:44;99259.41;;;20.52;33.19
16331;BME280;8275;48.206;16.340;2023-05-29T01:12:26;99255.97;;;20.47;33.31
16331;BME280;8275;48.206;16.340;2023-05-29T01:15:16;99250.53;;;20.42;33.27
16331;BME280;8275;48.206;16.340;2023-05-29T01:18:07;99255.28;;;20.41;33.37
16331;BME280;8275;48.206;16.340;2023-05-29T01:20:42;99258.41;;;20.40;33.61
16331;BME280;8275;48.206;16.340;2023-05-29T01:26:46;99270.28;;;20.32;33.58
16331;BME280;8275;48.206;16.340;2023-05-29T01:29:19;99270.78;;;20.34;33.61
16331;BME280;8275;48.206;16.340;2023-05-29T01:31:50;99267.19;;;20.33;33.51
16331;BME280;8275;48.206;16.340;2023-05-29T01:34:20;99261.94;;;20.32;33.82
16331;BME280;8275;48.206;16.340;2023-05-29T01:36:48;99261.13;;;20.31;33.67
16331;BME280;8275;48.206;16.340;2023-05-29T01:39:17;99253.09;;;20.29;33.76
16331;BME280;8275;48.206;16.340;2023-05-29T01:41:48;99255.69;;;20.26;34.03
16331;BME280;8275;48.206;16.340;2023-05-29T01:44:18;99252.41;;;20.24;34.55
16331;BME280;8275;48.206;16.340;2023-05-29T01:46:47;99245.22;;;20.23;34.43
16331;BME280;8275;48.206;16.340;2023-05-29T01:49:17;99243.56;;;20.22;34.56
16331;BME280;8275;48.206;16.340;2023-05-29T01:51:46;99254.16;;;20.20;34.75
16331;BME280;8275;48.206;16.340;2023-05-29T01:54:15;99256.78;;;20.16;34.69
16331;BME280;8275;48.206;16.340;2023-05-29T01:56:46;99256.78;;;20.16;34.69
16331;BME280;8275;48.206;16.340;2023-05-29T01:59:16;99256.28;;;20.14;34.59
16331;BME280;8275;48.206;16.340;2023-05-29T02:01:44;99252.19;;;20.12;34.43
16331;BME280;8275;48.206;16.340;2023-05-29T02:04:13;99251.97;;;20.08;34.63
16331;BME280;8275;48.206;16.340;2023-05-29T02:06:42;99254.75;;;20.08;34.75
16331;BME280;8275;48.206;16.340;2023-05-29T02:09:10;99259.00;;;20.06;34.53
16331;BME280;8275;48.206;16.340;2023-05-29T02:11:39;99255.72;;;20.04;34.60
16331;BME280;8275;48.206;16.340;2023-05-29T02:14:13;99250.78;;;20.01;34.74
16331;BME280;8275;48.206;16.340;2023-05-29T02:16:41;99248.34;;;19.99;34.58
16331;BME280;8275;48.206;16.340;2023-05-29T02:19:11;99249.28;;;19.95;34.81
16331;BME280;8275;48.206;16.340;2023-05-29T02:21:40;99251.56;;;19.93;34.79
16331;BME280;8275;48.206;16.340;2023-05-29T02:24:08;99259.72;;;19.89;34.81
16331;BME280;8275;48.206;16.340;2023-05-29T02:26:38;99251.19;;;19.86;34.90
16331;BME280;8275;48.206;16.340;2023-05-29T02:29:07;99254.59;;;19.83;34.91
16331;BME280;8275;48.206;16.340;2023-05-29T02:31:36;99254.44;;;19.79;34.97
16331;BME280;8275;48.206;16.340;2023-05-29T02:34:05;99247.88;;;19.75;35.13
16331;BME280;8275;48.206;16.340;2023-05-29T02:36:33;99243.75;;;19.73;35.07
16331;BME280;8275;48.206;16.340;2023-05-29T02:39:05;99243.56;;;19.69;35.39
16331;BME280;8275;48.206;16.340;2023-05-29T02:41:33;99242.56;;;19.65;35.32
16331;BME280;8275;48.206;16.340;2023-05-29T02:44:01;99244.00;;;19.63;35.37
16331;BME280;8275;48.206;16.340;2023-05-29T02:46:30;99227.94;;;19.59;35.50
16331;BME280;8275;48.206;16.340;2023-05-29T02:49:00;99231.38;;;19.56;35.54
16331;BME280;8275;48.206;16.340;2023-05-29T02:51:28;99234.78;;;19.53;35.54
16331;BME280;8275;48.206;16.340;2023-05-29T02:53:57;99233.47;;;19.51;35.67
16331;BME280;8275;48.206;16.340;2023-05-29T02:56:25;99239.63;;;19.48;35.79
16331;BME280;8275;48.206;16.340;2023-05-29T02:58:53;99239.47;;;19.44;35.78
16331;BME280;8275;48.206;16.340;2023-05-29T03:01:22;99229.78;;;19.42;35.97
16331;BME280;8275;48.206;16.340;2023-05-29T03:03:50;99232.06;;;19.40;35.95
16331;BME280;8275;48.206;16.340;2023-05-29T03:06:20;99234.34;;;19.38;36.00
16331;BME280;8275;48.206;16.340;2023-05-29T03:08:49;99229.09;;;19.36;36.03
16331;BME280;8275;48.206;16.340;2023-05-29T03:11:18;99233.03;;;19.35;35.96
16331;BME280;8275;48.206;16.340;2023-05-29T03:13:48;99234.44;;;19.33;35.99
16331;BME280;8275;48.206;16.340;2023-05-29T03:16:16;99227.53;;;19.30;36.11
16331;BME280;8275;48.206;16.340;2023-05-29T03:18:44;99225.09;;;19.29;36.21
16331;BME280;8275;48.206;16.340;2023-05-29T03:21:13;99229.00;;;19.28;36.22
16331;BME280;8275;48.206;16.340;2023-05-29T03:23:43;99226.03;;;19.24;36.32
16331;BME280;8275;48.206;16.340;2023-05-29T03:26:11;99232.72;;;19.23;36.27
16331;BME280;8275;48.206;16.340;2023-05-29T03:28:40;99222.75;;;19.22;36.39
16331;BME280;8275;48.206;16.340;2023-05-29T03:31:08;99227.47;;;19.22;36.39
16331;BME280;8275;48.206;16.340;2023-05-29T03:33:37;99238.59;;;19.22;36.40
16331;BME280;8275;48.206;16.340;2023-05-29T03:36:06;99234.97;;;19.21;36.43
16331;BME280;8275;48.206;16.340;2023-05-29T03:38:35;99246.91;;;19.22;36.51
16331;BME280;8275;48.206;16.340;2023-05-29T03:41:05;99240.88;;;19.20;36.67
16331;BME280;8275;48.206;16.340;2023-05-29T03:43:34;99239.72;;;19.21;36.55
16331;BME280;8275;48.206;16.340;2023-05-29T03:46:03;99244.16;;;19.22;36.54
16331;BME280;8275;48.206;16.340;2023-05-29T03:48:31;99236.66;;;19.22;36.73
16331;BME280;8275;48.206;16.340;2023-05-29T03:51:00;99250.19;;;19.24;36.76
16331;BME280;8275;48.206;16.340;2023-05-29T03:53:28;99249.88;;;19.25;36.62
16331;BME280;8275;48.206;16.340;2023-05-29T03:55:57;99255.44;;;19.25;36.69
16331;BME280;8275;48.206;16.340;2023-05-29T03:58:28;99245.97;;;19.26;36.85
16331;BME280;8275;48.206;16.340;2023-05-29T04:00:56;99251.22;;;19.28;36.81
16331;BME280;8275;48.206;16.340;2023-05-29T04:03:25;99258.09;;;19.30;36.81
16331;BME280;8275;48.206;16.340;2023-05-29T04:05:53;99260.56;;;19.32;36.83
16331;BME280;8275;48.206;16.340;2023-05-29T04:08:23;99264.66;;;19.34;36.86
16331;BME280;8275;48.206;16.340;2023-05-29T04:10:51;99266.34;;;19.35;36.82
16331;BME280;8275;48.206;16.340;2023-05-29T04:13:21;99265.72;;;19.38;36.78
16331;BME280;8275;48.206;16.340;2023-05-29T04:15:50;99267.88;;;19.41;37.01
16331;BME280;8275;48.206;16.340;2023-05-29T04:18:21;99267.75;;;19.46;36.92
16331;BME280;8275;48.206;16.340;2023-05-29T04:20:49;99268.75;;;19.50;36.95
16331;BME280;8275;48.206;16.340;2023-05-29T04:23:18;99262.25;;;19.55;36.83
16331;BME280;8275;48.206;16.340;2023-05-29T04:25:46;99273.25;;;19.60;36.81
16331;BME280;8275;48.206;16.340;2023-05-29T04:28:17;99271.69;;;19.68;36.82
16331;BME280;8275;48.206;16.340;2023-05-29T04:30:49;99268.44;;;19.74;36.88
16331;BME280;8275;48.206;16.340;2023-05-29T04:33:20;99275.50;;;19.80;37.03
16331;BME280;8275;48.206;16.340;2023-05-29T04:35:50;99272.31;;;19.87;37.11
16331;BME280;8275;48.206;16.340;2023-05-29T04:38:19;99279.38;;;19.93;37.12
16331;BME280;8275;48.206;16.340;2023-05-29T04:40:52;99288.09;;;20.00;37.14
16331;BME280;8275;48.206;16.340;2023-05-29T04:43:25;99287.00;;;20.09;36.88
16331;BME280;8275;48.206;16.340;2023-05-29T04:45:56;99281.81;;;20.16;36.89
16331;BME280;8275;48.206;16.340;2023-05-29T04:48:25;99281.25;;;20.28;36.78
16331;BME280;8275;48.206;16.340;2023-05-29T04:50:54;99283.75;;;20.38;36.70
16331;BME280;8275;48.206;16.340;2023-05-29T04:53:22;99282.66;;;20.48;36.71
16331;BME280;8275;48.206;16.340;2023-05-29T04:55:51;99290.72;;;20.58;36.51
16331;BME280;8275;48.206;16.340;2023-05-29T04:58:19;99300.41;;;20.69;36.53
16331;BME280;8275;48.206;16.340;2023-05-29T05:00:48;99294.25;;;20.80;36.11
16331;BME280;8275;48.206;16.340;2023-05-29T05:03:18;99292.47;;;20.93;35.85
16331;BME280;8275;48.206;16.340;2023-05-29T05:05:47;99295.97;;;21.07;35.78
16331;BME280;8275;48.206;16.340;2023-05-29T05:08:15;99293.88;;;21.21;35.81
16331;BME280;8275;48.206;16.340;2023-05-29T05:10:44;99300.16;;;21.52;35.01
16331;BME280;8275;48.206;16.340;2023-05-29T05:13:12;99290.97;;;21.86;34.68
16331;BME280;8275;48.206;16.340;2023-05-29T05:15:41;99296.00;;;22.18;33.87
16331;BME280;8275;48.206;16.340;2023-05-29T05:18:09;99296.28;;;22.34;33.78
16331;BME280;8275;48.206;16.340;2023-05-29T05:20:39;99294.97;;;22.40;33.80
16331;BME280;8275;48.206;16.340;2023-05-29T05:23:09;99293.63;;;22.46;33.44
16331;BME280;8275;48.206;16.340;2023-05-29T05:25:37;99297.38;;;22.50;33.59
16331;BME280;8275;48.206;16.340;2023-05-29T05:28:07;99294.41;;;22.55;33.56
16331;BME280;8275;48.206;16.340;2023-05-29T05:30:36;99301.78;;;22.60;33.15
16331;BME280;8275;48.206;16.340;2023-05-29T05:33:04;99290.78;;;22.63;32.83
16331;BME280;8275;48.206;16.340;2023-05-29T05:35:33;99303.59;;;22.64;32.63
16331;BME280;8275;48.206;16.340;2023-05-29T05:38:03;99305.38;;;22.69;32.67
16331;BME280;8275;48.206;16.340;2023-05-29T05:40:31;99303.22;;;22.74;32.68
16331;BME280;8275;48.206;16.340;2023-05-29T05:43:00;99299.91;;;22.81;32.28
16331;BME280;8275;48.206;16.340;2023-05-29T05:45:29;99294.94;;;22.86;32.34
16331;BME280;8275;48.206;16.340;2023-05-29T05:47:57;99301.81;;;22.97;32.02
16331;BME280;8275;48.206;16.340;2023-05-29T05:50:26;99295.34;;;23.05;31.81
16331;BME280;8275;48.206;16.340;2023-05-29T05:52:54;99295.44;;;23.18;31.77
16331;BME280;8275;48.206;16.340;2023-05-29T05:55:24;99299.94;;;23.31;32.07
16331;BME280;8275;48.206;16.340;2023-05-29T05:57:53;99299.38;;;23.46;31.45
16331;BME280;8275;48.206;16.340;2023-05-29T06:00:23;99300.59;;;23.57;31.38
16331;BME280;8275;48.206;16.340;2023-05-29T06:02:51;99297.38;;;23.67;30.98
16331;BME280;8275;48.206;16.340;2023-05-29T06:05:20;99308.16;;;23.77;30.74
16331;BME280;8275;48.206;16.340;2023-05-29T06:07:49;99307.75;;;23.87;30.99
16331;BME280;8275;48.206;16.340;2023-05-29T06:10:17;99312.09;;;23.97;30.61
16331;BME280;8275;48.206;16.340;2023-05-29T06:12:47;99317.94;;;24.04;30.61
16331;BME280;8275;48.206;16.340;2023-05-29T06:15:16;99307.88;;;24.11;30.16
16331;BME280;8275;48.206;16.340;2023-05-29T06:17:44;99309.78;;;24.19;30.27
16331;BME280;8275;48.206;16.340;2023-05-29T06:20:13;99314.94;;;24.29;29.99
16331;BME280;8275;48.206;16.340;2023-05-29T06:22:41;99306.09;;;24.39;29.96
16331;BME280;8275;48.206;16.340;2023-05-29T06:25:10;99310.75;;;24.48;29.66
16331;BME280;8275;48.206;16.340;2023-05-29T06:27:38;99319.41;;;24.55;29.80
16331;BME280;8275;48.206;16.340;2023-05-29T06:30:11;99318.16;;;24.64;29.64
16331;BME280;8275;48.206;16.340;2023-05-29T06:32:39;99324.75;;;24.80;29.58
16331;BME280;8275;48.206;16.340;2023-05-29T06:35:08;99324.88;;;24.96;29.41
16331;BME280;8275;48.206;16.340;2023-05-29T06:37:37;99321.72;;;25.09;29.10
16331;BME280;8275;48.206;16.340;2023-05-29T06:40:07;99330.47;;;25.20;29.01
16331;BME280;8275;48.206;16.340;2023-05-29T06:42:36;99321.69;;;25.34;29.19
16331;BME280;8275;48.206;16.340;2023-05-29T06:45:05;99328.50;;;25.45;28.78
16331;BME280;8275;48.206;16.340;2023-05-29T06:47:36;99322.88;;;25.57;28.75
16331;BME280;8275;48.206;16.340;2023-05-29T06:50:06;99328.00;;;25.67;28.43
16331;BME280;8275;48.206;16.340;2023-05-29T06:52:35;99336.03;;;25.81;28.41
16331;BME280;8275;48.206;16.340;2023-05-29T06:55:04;99331.09;;;25.90;28.08
16331;BME280;8275;48.206;16.340;2023-05-29T06:57:33;99333.97;;;25.93;27.66
16331;BME280;8275;48.206;16.340;2023-05-29T07:00:01;99333.28;;;25.96;27.56
16331;BME280;8275;48.206;16.340;2023-05-29T07:02:33;99328.81;;;25.95;27.79
16331;BME280;8275;48.206;16.340;2023-05-29T07:05:03;99325.94;;;25.92;27.57
16331;BME280;8275;48.206;16.340;2023-05-29T07:07:32;99326.75;;;25.92;27.55
16331;BME280;8275;48.206;16.340;2023-05-29T07:10:01;99332.25;;;25.89;27.50
16331;BME280;8275;48.206;16.340;2023-05-29T07:12:30;99329.34;;;25.85;27.37
16331;BME280;8275;48.206;16.340;2023-05-29T07:14:58;99337.31;;;25.83;27.78
16331;BME280;8275;48.206;16.340;2023-05-29T07:17:27;99336.25;;;25.88;27.56
16331;BME280;8275;48.206;16.340;2023-05-29T07:19:55;99331.88;;;25.90;27.90
16331;BME280;8275;48.206;16.340;2023-05-29T07:22:26;99344.50;;;25.96;27.33
16331;BME280;8275;48.206;16.340;2023-05-29T07:24:54;99337.00;;;26.00;27.06
16331;BME280;8275;48.206;16.340;2023-05-29T07:27:23;99332.75;;;26.06;27.08
16331;BME280;8275;48.206;16.340;2023-05-29T07:29:51;99335.81;;;26.13;27.07
16331;BME280;8275;48.206;16.340;2023-05-29T07:32:20;99332.50;;;26.23;27.08
16331;BME280;8275;48.206;16.340;2023-05-29T07:34:48;99344.00;;;26.34;27.12
16331;BME280;8275;48.206;16.340;2023-05-29T07:37:17;99343.97;;;26.46;26.81
16331;BME280;8275;48.206;16.340;2023-05-29T07:39:47;99357.50;;;26.56;26.53
16331;BME280;8275;48.206;16.340;2023-05-29T07:42:16;99352.16;;;26.67;26.77
16331;BME280;8275;48.206;16.340;2023-05-29T07:44:44;99347.44;;;26.71;26.65
16331;BME280;8275;48.206;16.340;2023-05-29T07:47:13;99348.47;;;26.78;26.77
16331;BME280;8275;48.206;16.340;2023-05-29T07:49:42;99349.84;;;26.84;26.70
16331;BME280;8275;48.206;16.340;2023-05-29T07:52:10;99337.97;;;26.91;26.62
16331;BME280;8275;48.206;16.340;2023-05-29T07:54:39;99347.38;;;26.98;26.40
16331;BME280;8275;48.206;16.340;2023-05-29T07:57:09;99348.38;;;27.06;26.29
16331;BME280;8275;48.206;16.340;2023-05-29T07:59:37;99342.94;;;27.13;26.17
16331;BME280;8275;48.206;16.340;2023-05-29T08:02:08;99338.22;;;27.17;25.69
16331;BME280;8275;48.206;16.340;2023-05-29T08:04:37;99344.28;;;27.19;25.26
16331;BME280;8275;48.206;16.340;2023-05-29T08:07:05;99346.66;;;27.17;25.19
16331;BME280;8275;48.206;16.340;2023-05-29T08:09:34;99355.09;;;27.17;25.33
16331;BME280;8275;48.206;16.340;2023-05-29T08:12:03;99347.47;;;27.17;25.10
16331;BME280;8275;48.206;16.340;2023-05-29T08:14:34;99343.50;;;27.19;25.56
16331;BME280;8275;48.206;16.340;2023-05-29T08:17:03;99344.38;;;27.23;25.05
16331;BME280;8275;48.206;16.340;2023-05-29T08:19:32;99347.38;;;27.30;25.27
16331;BME280;8275;48.206;16.340;2023-05-29T08:22:00;99343.47;;;27.34;25.33
16331;BME280;8275;48.206;16.340;2023-05-29T08:24:29;99341.69;;;27.42;25.21
16331;BME280;8275;48.206;16.340;2023-05-29T08:26:57;99349.03;;;27.46;25.07
16331;BME280;8275;48.206;16.340;2023-05-29T08:29:27;99352.00;;;27.53;25.35
16331;BME280;8275;48.206;16.340;2023-05-29T08:31:56;99358.13;;;27.59;24.53
16331;BME280;8275;48.206;16.340;2023-05-29T08:34:25;99340.53;;;27.62;24.39
16331;BME280;8275;48.206;16.340;2023-05-29T08:36:54;99349.03;;;27.65;24.47
16331;BME280;8275;48.206;16.340;2023-05-29T08:39:23;99349.59;;;27.71;24.99
16331;BME280;8275;48.206;16.340;2023-05-29T08:41:58;99344.50;;;27.76;24.60
16331;BME280;8275;48.206;16.340;2023-05-29T08:44:30;99336.09;;;27.80;24.35
16331;BME280;8275;48.206;16.340;2023-05-29T08:47:02;99344.28;;;27.85;24.56
16331;BME280;8275;48.206;16.340;2023-05-29T08:49:40;99343.59;;;27.92;24.57
16331;BME280;8275;48.206;16.340;2023-05-29T08:52:14;99342.50;;;27.96;24.46
16331;BME280;8275;48.206;16.340;2023-05-29T08:54:44;99337.50;;;28.05;24.04
16331;BME280;8275;48.206;16.340;2023-05-29T08:57:13;99344.09;;;28.13;23.99
16331;BME280;8275;48.206;16.340;2023-05-29T08:59:43;99349.78;;;28.16;23.91
16331;BME280;8275;48.206;16.340;2023-05-29T09:02:14;99337.78;;;28.19;24.01
16331;BME280;8275;48.206;16.340;2023-05-29T09:04:43;99340.22;;;28.21;23.94
16331;BME280;8275;48.206;16.340;2023-05-29T09:07:15;99344.28;;;28.23;23.64
16331;BME280;8275;48.206;16.340;2023-05-29T09:09:45;99342.31;;;28.24;23.84
16331;BME280;8275;48.206;16.340;2023-05-29T09:12:13;99335.59;;;28.32;23.74
16331;BME280;8275;48.206;16.340;2023-05-29T09:14:44;99341.09;;;28.44;23.95
16331;BME280;8275;48.206;16.340;2023-05-29T09:17:14;99348.50;;;28.52;23.20
16331;BME280;8275;48.206;16.340;2023-05-29T09:19:43;99343.69;;;28.52;23.01
16331;BME280;8275;48.206;16.340;2023-05-29T09:22:14;99342.44;;;28.50;23.09
16331;BME280;8275;48.206;16.340;2023-05-29T09:24:47;99333.22;;;28.53;23.82
16331;BME280;8275;48.206;16.340;2023-05-29T09:27:18;99336.28;;;28.64;23.84
16331;BME280;8275;48.206;16.340;2023-05-29T09:29:47;99338.03;;;28.72;23.43
16331;BME280;8275;48.206;16.340;2023-05-29T09:32:18;99340.50;;;28.73;23.22
16331;BME280;8275;48.206;16.340;2023-05-29T09:34:47;99343.31;;;28.73;23.78
16331;BME280;8275;48.206;16.340;2023-05-29T09:37:15;99342.47;;;28.73;23.45
16331;BME280;8275;48.206;16.340;2023-05-29T09:39:49;99341.66;;;28.72;23.73
16331;BME280;8275;48.206;16.340;2023-05-29T09:42:18;99339.97;;;28.68;23.49
16331;BME280;8275;48.206;16.340;2023-05-29T09:44:49;99339.84;;;28.61;23.21
16331;BME280;8275;48.206;16.340;2023-05-29T09:47:21;99346.19;;;28.58;23.48
16331;BME280;8275;48.206;16.340;2023-05-29T09:49:50;99339.75;;;28.57;23.71
16331;BME280;8275;48.206;16.340;2023-05-29T09:52:21;99337.41;;;28.59;23.56
16331;BME280;8275;48.206;16.340;2023-05-29T09:54:51;99331.91;;;28.66;23.44
16331;BME280;8275;48.206;16.340;2023-05-29T09:57:20;99334.06;;;28.76;23.92
16331;BME280;8275;48.206;16.340;2023-05-29T09:59:52;99339.09;;;28.86;23.80
16331;BME280;8275;48.206;16.340;2023-05-29T10:02:22;99349.31;;;28.94;23.42
16331;BME280;8275;48.206;16.340;2023-05-29T10:04:52;99332.81;;;28.96;23.51
16331;BME280;8275;48.206;16.340;2023-05-29T10:07:27;99339.28;;;28.97;23.79
16331;BME280;8275;48.206;16.340;2023-05-29T10:10:00;99336.09;;;28.98;23.90
16331;BME280;8275;48.206;16.340;2023-05-29T10:12:32;99333.75;;;29.04;23.56
16331;BME280;8275;48.206;16.340;2023-05-29T10:15:10;99329.38;;;29.06;23.56
16331;BME280;8275;48.206;16.340;2023-05-29T10:17:49;99325.28;;;29.04;23.18
16331;BME280;8275;48.206;16.340;2023-05-29T10:20:20;99324.88;;;29.02;23.31
16331;BME280;8275;48.206;16.340;2023-05-29T10:22:51;99325.25;;;29.00;23.13
16331;BME280;8275;48.206;16.340;2023-05-29T10:25:20;99318.78;;;29.00;22.90
16331;BME280;8275;48.206;16.340;2023-05-29T10:27:49;99318.41;;;29.01;22.81
16331;BME280;8275;48.206;16.340;2023-05-29T10:30:31;99304.38;;;29.05;23.04
16331;BME280;8275;48.206;16.340;2023-05-29T10:33:23;99299.63;;;29.12;22.71
16331;BME280;8275;48.206;16.340;2023-05-29T10:36:07;99301.47;;;29.24;22.55
16331;BME280;8275;48.206;16.340;2023-05-29T10:38:41;99300.78;;;29.31;21.83
16331;BME280;8275;48.206;16.340;2023-05-29T10:41:31;99307.69;;;29.33;21.68
16331;BME280;8275;48.206;16.340;2023-05-29T10:44:02;99309.53;;;29.52;21.32
16331;BME280;8275;48.206;16.340;2023-05-29T10:47:03;99292.19;;;29.76;21.45
16331;BME280;8275;48.206;16.340;2023-05-29T10:49:33;99297.56;;;30.18;21.24
16331;BME280;8275;48.206;16.340;2023-05-29T10:52:04;99303.72;;;30.64;20.70
16331;BME280;8275;48.206;16.340;2023-05-29T10:54:54;99298.16;;;31.14;20.60
16331;BME280;8275;48.206;16.340;2023-05-29T10:57:24;99288.38;;;31.59;19.18
16331;BME280;8275;48.206;16.340;2023-05-29T11:00:03;99287.38;;;31.99;18.98
16331;BME280;8275;48.206;16.340;2023-05-29T11:02:39;99287.53;;;32.41;19.13
16331;BME280;8275;48.206;16.340;2023-05-29T11:05:24;99289.22;;;32.81;18.71
16331;BME280;8275;48.206;16.340;2023-05-29T11:07:56;99289.28;;;33.13;18.09
16331;BME280;8275;48.206;16.340;2023-05-29T11:10:55;99291.28;;;33.41;17.96
16331;BME280;8275;48.206;16.340;2023-05-29T11:13:25;99289.59;;;33.71;17.73
16331;BME280;8275;48.206;16.340;2023-05-29T11:16:11;99284.66;;;34.04;17.04
16331;BME280;8275;48.206;16.340;2023-05-29T11:18:45;99283.22;;;34.43;17.16
16331;BME280;8275;48.206;16.340;2023-05-29T11:21:32;99278.00;;;34.93;17.43
16331;BME280;8275;48.206;16.340;2023-05-29T11:24:03;99281.28;;;35.40;16.36
16331;BME280;8275;48.206;16.340;2023-05-29T11:26:37;99282.97;;;35.74;16.05
16331;BME280;8275;48.206;16.340;2023-05-29T11:29:06;99283.34;;;36.14;15.63
16331;BME280;8275;48.206;16.340;2023-05-29T11:31:40;99268.66;;;36.45;15.18
16331;BME280;8275;48.206;16.340;2023-05-29T11:34:14;99280.13;;;36.69;14.54
16331;BME280;8275;48.206;16.340;2023-05-29T11:36:44;99276.41;;;36.98;14.75
16331;BME280;8275;48.206;16.340;2023-05-29T11:39:16;99285.94;;;37.38;14.71
16331;BME280;8275;48.206;16.340;2023-05-29T11:41:44;99271.41;;;37.72;14.15
16331;BME280;8275;48.206;16.340;2023-05-29T11:44:14;99275.88;;;37.96;13.59
16331;BME280;8275;48.206;16.340;2023-05-29T11:46:42;99278.78;;;38.12;13.78
16331;BME280;8275;48.206;16.340;2023-05-29T11:49:11;99275.56;;;38.30;13.39
16331;BME280;8275;48.206;16.340;2023-05-29T11:51:43;99280.66;;;38.58;13.46
16331;BME280;8275;48.206;16.340;2023-05-29T11:54:12;99275.63;;;38.82;13.39
16331;BME280;8275;48.206;16.340;2023-05-29T11:56:41;99273.00;;;39.03;13.11
16331;BME280;8275;48.206;16.340;2023-05-29T11:59:11;99280.97;;;39.28;13.15
16331;BME280;8275;48.206;16.340;2023-05-29T12:01:39;99267.59;;;39.54;12.61
16331;BME280;8275;48.206;16.340;2023-05-29T12:04:15;99261.75;;;39.73;11.86
16331;BME280;8275;48.206;16.340;2023-05-29T12:06:45;99259.78;;;39.99;12.05
16331;BME280;8275;48.206;16.340;2023-05-29T12:09:25;99258.72;;;40.22;11.99
16331;BME280;8275;48.206;16.340;2023-05-29T12:11:54;99265.13;;;40.54;11.72
16331;BME280;8275;48.206;16.340;2023-05-29T12:14:29;99258.13;;;40.93;11.76
16331;BME280;8275;48.206;16.340;2023-05-29T12:16:57;99247.91;;;41.39;11.64
16331;BME280;8275;48.206;16.340;2023-05-29T12:19:26;99248.22;;;41.88;11.42
16331;BME280;8275;48.206;16.340;2023-05-29T12:21:57;99248.31;;;42.28;10.87
16331;BME280;8275;48.206;16.340;2023-05-29T12:24:25;99239.19;;;42.51;10.67
16331;BME280;8275;48.206;16.340;2023-05-29T12:27:09;99244.69;;;42.67;10.70
16331;BME280;8275;48.206;16.340;2023-05-29T12:29:37;99248.41;;;42.77;9.98
16331;BME280;8275;48.206;16.340;2023-05-29T12:32:10;99242.66;;;42.77;10.16
16331;BME280;8275;48.206;16.340;2023-05-29T12:34:39;99244.28;;;42.78;10.21
16331;BME280;8275;48.206;16.340;2023-05-29T12:37:10;99248.13;;;42.84;9.88
16331;BME280;8275;48.206;16.340;2023-05-29T12:39:41;99239.72;;;42.98;9.90
16331;BME280;8275;48.206;16.340;2023-05-29T12:42:10;99242.97;;;43.18;9.50
16331;BME280;8275;48.206;16.340;2023-05-29T12:44:41;99247.53;;;43.38;9.42
16331;BME280;8275;48.206;16.340;2023-05-29T12:47:13;99243.34;;;43.48;9.60
16331;BME280;8275;48.206;16.340;2023-05-29T12:49:43;99244.81;;;43.70;9.35
16331;BME280;8275;48.206;16.340;2023-05-29T12:52:13;99245.28;;;43.87;8.86
16331;BME280;8275;48.206;16.340;2023-05-29T12:54:43;99245.28;;;43.96;8.47
16331;BME280;8275;48.206;16.340;2023-05-29T12:57:12;99237.72;;;43.98;9.24
16331;BME280;8275;48.206;16.340;2023-05-29T12:59:40;99241.13;;;43.97;8.83
16331;BME280;8275;48.206;16.340;2023-05-29T13:02:09;99246.41;;;43.98;8.94
16331;BME280;8275;48.206;16.340;2023-05-29T13:04:37;99233.41;;;44.12;9.15
16331;BME280;8275;48.206;16.340;2023-05-29T13:07:06;99229.66;;;44.39;8.63
16331;BME280;8275;48.206;16.340;2023-05-29T13:09:36;99226.25;;;44.40;8.29
16331;BME280;8275;48.206;16.340;2023-05-29T13:12:05;99218.16;;;44.62;8.43
16331;BME280;8275;48.206;16.340;2023-05-29T13:14:34;99223.88;;;44.90;8.12
16331;BME280;8275;48.206;16.340;2023-05-29T13:17:05;99229.41;;;45.02;8.11
16331;BME280;8275;48.206;16.340;2023-05-29T13:19:33;99223.84;;;45.13;8.12